createdAt,value
2017-03-07T00:00:03.940Z,933.5
2017-03-07T00:01:12.020Z,933.5
2017-03-07T00:02:20.068Z,933.6
2017-03-07T00:03:28.160Z,933.6
2017-03-07T00:04:36.298Z,933.6
2017-03-07T00:05:44.644Z,933.6
2017-03-07T00:06:52.434Z,933.6
2017-03-07T00:08:00.525Z,933.7
2017-03-07T00:09:08.668Z,933.7
2017-03-07T00:10:16.710Z,933.7
2017-03-07T00:11:24.916Z,933.7
2017-03-07T00:12:32.882Z,933.6
2017-03-07T00:13:40.981Z,933.6
2017-03-07T00:14:49.072Z,933.6
2017-03-07T00:15:57.293Z,933.6
2017-03-07T00:17:05.304Z,933.7
2017-03-07T00:18:13.345Z,933.7
2017-03-07T00:19:21.437Z,933.7
2017-03-07T00:20:29.528Z,933.7
2017-03-07T00:21:37.655Z,933.8
2017-03-07T00:22:45.836Z,933.8
2017-03-07T00:23:53.802Z,933.8
2017-03-07T00:25:01.949Z,933.8
2017-03-07T00:26:09.988Z,933.8
2017-03-07T00:27:18.074Z,933.8
2017-03-07T00:28:26.220Z,933.9
2017-03-07T00:29:34.258Z,933.9
2017-03-07T00:30:42.353Z,933.9
2017-03-07T00:31:50.462Z,933.9
2017-03-07T00:32:58.528Z,933.9
2017-03-07T00:34:06.741Z,933.9
2017-03-07T00:35:14.706Z,933.9
2017-03-07T00:36:22.797Z,933.9
2017-03-07T00:37:30.888Z,933.9
2017-03-07T00:38:38.979Z,933.9
2017-03-07T00:39:47.127Z,934.0
2017-03-07T00:40:55.441Z,934.0
2017-03-07T00:42:03.257Z,934.0
2017-03-07T00:43:11.355Z,934.0
2017-03-07T00:44:19.442Z,934.0
2017-03-07T00:45:27.589Z,934.0
2017-03-07T00:46:35.621Z,934.1
2017-03-07T00:47:43.729Z,934.0
2017-03-07T00:48:51.801Z,934.1
2017-03-07T00:49:59.895Z,934.1
2017-03-07T00:51:08.037Z,934.1
2017-03-07T00:52:16.065Z,934.1
2017-03-07T00:53:24.153Z,934.1
2017-03-07T00:54:32.249Z,934.2
2017-03-07T00:55:40.338Z,934.2
2017-03-07T00:56:48.548Z,934.1
2017-03-07T00:57:56.521Z,934.1
2017-03-07T00:59:04.608Z,934.1
2017-03-07T01:00:12.701Z,934.2
2017-03-07T01:01:20.794Z,934.2
2017-03-07T01:02:28.944Z,934.3
2017-03-07T01:03:36.974Z,934.3
2017-03-07T01:04:45.071Z,934.3
2017-03-07T01:05:53.266Z,934.3
2017-03-07T01:07:01.247Z,934.3
2017-03-07T01:08:09.452Z,934.4
2017-03-07T01:09:17.427Z,934.4
2017-03-07T01:10:25.708Z,934.4
2017-03-07T01:11:33.609Z,934.5
2017-03-07T01:12:41.757Z,934.5
2017-03-07T01:13:49.846Z,934.5
2017-03-07T01:14:57.883Z,934.4
2017-03-07T01:16:06.007Z,934.4
2017-03-07T01:17:14.102Z,934.5
2017-03-07T01:18:22.151Z,934.5
2017-03-07T01:19:30.365Z,934.5
2017-03-07T01:20:38.492Z,934.5
2017-03-07T01:21:46.573Z,934.6
2017-03-07T01:22:54.515Z,934.6
2017-03-07T01:24:02.604Z,934.6
2017-03-07T01:25:10.763Z,934.7
2017-03-07T01:25:10.778Z,934.7
2017-03-07T01:26:18.789Z,934.7
2017-03-07T01:27:26.874Z,934.7
2017-03-07T01:28:35.086Z,934.7
2017-03-07T01:29:43.060Z,934.8
2017-03-07T01:30:51.202Z,934.7
2017-03-07T01:31:59.382Z,934.7
2017-03-07T01:33:07.325Z,934.6
2017-03-07T01:34:15.413Z,934.7
2017-03-07T01:35:23.496Z,934.7
2017-03-07T01:36:31.646Z,934.7
2017-03-07T01:37:39.684Z,934.7
2017-03-07T01:38:47.766Z,934.7
2017-03-07T01:39:55.861Z,934.7
2017-03-07T01:41:03.952Z,934.8
2017-03-07T01:42:12.193Z,934.8
2017-03-07T01:43:20.250Z,934.8
2017-03-07T01:44:28.273Z,934.8
2017-03-07T01:45:36.309Z,934.8
2017-03-07T01:46:44.399Z,934.8
2017-03-07T01:47:52.612Z,934.8
2017-03-07T01:49:00.586Z,934.7
2017-03-07T01:50:08.669Z,934.8
2017-03-07T01:51:16.758Z,934.7
2017-03-07T01:52:24.849Z,934.8
2017-03-07T01:53:33.075Z,934.8
2017-03-07T01:54:41.027Z,934.8
2017-03-07T01:55:49.117Z,934.8
2017-03-07T01:56:57.210Z,934.7
2017-03-07T01:58:05.298Z,934.8
2017-03-07T01:59:13.519Z,934.7
2017-03-07T02:00:21.530Z,934.7
2017-03-07T02:01:29.561Z,934.8
2017-03-07T02:02:37.646Z,934.7
2017-03-07T02:03:45.742Z,934.7
2017-03-07T02:04:53.896Z,934.7
2017-03-07T02:06:01.929Z,934.8
2017-03-07T02:07:10.015Z,934.7
2017-03-07T02:08:18.105Z,934.7
2017-03-07T02:09:26.338Z,934.7
2017-03-07T02:10:34.333Z,934.7
2017-03-07T02:11:42.372Z,934.8
2017-03-07T02:12:50.461Z,934.8
2017-03-07T02:13:58.547Z,934.8
2017-03-07T02:15:06.635Z,934.8
2017-03-07T02:16:14.782Z,934.8
2017-03-07T02:17:22.813Z,934.8
2017-03-07T02:18:30.898Z,934.8
2017-03-07T02:19:39.061Z,934.8
2017-03-07T02:20:47.149Z,934.8
2017-03-07T02:21:55.289Z,934.8
2017-03-07T02:23:03.254Z,934.8
2017-03-07T02:24:11.545Z,934.9
2017-03-07T02:25:19.616Z,934.8
2017-03-07T02:26:27.515Z,934.9
2017-03-07T02:27:35.665Z,934.9
2017-03-07T02:28:43.702Z,934.9
2017-03-07T02:29:51.790Z,935.0
2017-03-07T02:30:59.876Z,935.0
2017-03-07T02:32:08.023Z,934.9
2017-03-07T02:33:16.180Z,935.0
2017-03-07T02:34:24.136Z,934.9
2017-03-07T02:35:32.407Z,935.0
2017-03-07T02:36:40.316Z,935.0
2017-03-07T02:37:48.396Z,935.0
2017-03-07T02:38:56.549Z,935.0
2017-03-07T02:40:04.586Z,934.9
2017-03-07T02:41:12.683Z,935.0
2017-03-07T02:42:20.764Z,935.0
2017-03-07T02:43:28.862Z,935.0
2017-03-07T02:44:37.068Z,935.0
2017-03-07T02:45:45.219Z,934.9
2017-03-07T02:46:53.118Z,934.9
2017-03-07T02:48:01.270Z,934.9
2017-03-07T02:49:09.299Z,935.0
2017-03-07T02:50:17.445Z,934.9
2017-03-07T02:51:25.480Z,935.0
2017-03-07T02:52:33.586Z,935.0
2017-03-07T02:53:41.658Z,935.0
2017-03-07T02:54:49.743Z,935.0
2017-03-07T02:55:57.960Z,935.0
2017-03-07T02:57:06.055Z,935.0
2017-03-07T02:58:14.014Z,935.0
2017-03-07T02:59:22.108Z,935.0
2017-03-07T03:00:30.194Z,935.0
2017-03-07T03:01:38.330Z,935.0
2017-03-07T03:02:46.395Z,935.0
2017-03-07T03:03:54.519Z,935.0
2017-03-07T03:05:02.547Z,935.0
2017-03-07T03:06:10.630Z,935.1
2017-03-07T03:07:18.840Z,935.0
2017-03-07T03:08:26.839Z,935.1
2017-03-07T03:09:34.899Z,935.1
2017-03-07T03:10:42.985Z,935.1
2017-03-07T03:11:51.075Z,935.1
2017-03-07T03:12:59.218Z,935.1
2017-03-07T03:14:07.256Z,935.2
2017-03-07T03:15:15.347Z,935.2
2017-03-07T03:16:23.445Z,935.3
2017-03-07T03:17:31.534Z,935.3
2017-03-07T03:18:39.733Z,935.2
2017-03-07T03:19:47.835Z,935.3
2017-03-07T03:20:55.807Z,935.3
2017-03-07T03:22:03.889Z,935.3
2017-03-07T03:23:12.176Z,935.3
2017-03-07T03:24:20.320Z,935.3
2017-03-07T03:25:28.153Z,935.3
2017-03-07T03:26:36.247Z,935.4
2017-03-07T03:27:44.333Z,935.4
2017-03-07T03:28:52.427Z,935.4
2017-03-07T03:30:00.603Z,935.4
2017-03-07T03:31:08.601Z,935.4
2017-03-07T03:32:16.692Z,935.4
2017-03-07T03:33:24.774Z,935.4
2017-03-07T03:34:33.038Z,935.4
2017-03-07T03:35:41.073Z,935.4
2017-03-07T03:36:49.034Z,935.4
2017-03-07T03:37:57.125Z,935.4
2017-03-07T03:39:05.215Z,935.4
2017-03-07T03:40:13.303Z,935.4
2017-03-07T03:41:21.448Z,935.3
2017-03-07T03:42:29.482Z,935.4
2017-03-07T03:43:37.576Z,935.4
2017-03-07T03:44:45.744Z,935.3
2017-03-07T03:45:53.749Z,935.3
2017-03-07T03:47:01.965Z,935.4
2017-03-07T03:48:09.927Z,935.4
2017-03-07T03:49:18.010Z,935.4
2017-03-07T03:50:26.102Z,935.4
2017-03-07T03:51:34.245Z,935.5
2017-03-07T03:52:42.337Z,935.4
2017-03-07T03:53:50.374Z,935.4
2017-03-07T03:54:58.466Z,935.5
2017-03-07T03:56:06.672Z,935.4
2017-03-07T03:57:14.642Z,935.4
2017-03-07T03:58:22.851Z,935.5
2017-03-07T03:59:30.820Z,935.5
2017-03-07T04:00:38.904Z,935.5
2017-03-07T04:01:46.991Z,935.5
2017-03-07T04:02:55.082Z,935.5
2017-03-07T04:04:03.225Z,935.5
2017-03-07T04:05:11.250Z,935.5
2017-03-07T04:06:19.487Z,935.4
2017-03-07T04:07:27.610Z,935.4
2017-03-07T04:08:35.511Z,935.5
2017-03-07T04:09:43.715Z,935.5
2017-03-07T04:10:51.771Z,935.5
2017-03-07T04:11:59.773Z,935.5
2017-03-07T04:13:07.860Z,935.5
2017-03-07T04:14:15.952Z,935.5
2017-03-07T04:15:24.094Z,935.6
2017-03-07T04:16:32.118Z,935.6
2017-03-07T04:17:40.345Z,935.6
2017-03-07T04:18:48.307Z,935.6
2017-03-07T04:19:56.389Z,935.6
2017-03-07T04:21:04.599Z,935.7
2017-03-07T04:22:12.570Z,935.7
2017-03-07T04:23:20.719Z,935.7
2017-03-07T04:24:28.745Z,935.7
2017-03-07T04:25:36.835Z,935.6
2017-03-07T04:26:44.981Z,935.6
2017-03-07T04:27:53.067Z,935.6
2017-03-07T04:29:01.156Z,935.6
2017-03-07T04:30:09.184Z,935.6
2017-03-07T04:31:17.272Z,935.7
2017-03-07T04:32:25.472Z,935.6
2017-03-07T04:33:33.447Z,935.6
2017-03-07T04:34:41.534Z,935.6
2017-03-07T04:35:49.630Z,935.6
2017-03-07T04:36:57.719Z,935.6
2017-03-07T04:38:05.869Z,935.6
2017-03-07T04:39:14.018Z,935.6
2017-03-07T04:40:21.985Z,935.6
2017-03-07T04:41:30.078Z,935.6
2017-03-07T04:42:38.162Z,935.7
2017-03-07T04:43:46.430Z,935.7
2017-03-07T04:44:54.342Z,935.7
2017-03-07T04:46:02.426Z,935.7
2017-03-07T04:47:10.509Z,935.8
2017-03-07T04:48:18.596Z,935.8
2017-03-07T04:49:26.738Z,935.8
2017-03-07T04:50:34.778Z,935.8
2017-03-07T04:51:42.864Z,935.8
2017-03-07T04:52:50.951Z,935.8
2017-03-07T04:53:59.040Z,935.8
2017-03-07T04:55:07.269Z,935.8
2017-03-07T04:56:15.215Z,935.8
2017-03-07T04:57:23.301Z,935.8
2017-03-07T04:58:31.393Z,935.9
2017-03-07T04:59:39.644Z,935.9
2017-03-07T05:00:47.620Z,935.9
2017-03-07T05:01:55.655Z,935.9
2017-03-07T05:03:03.744Z,935.9
2017-03-07T05:04:11.831Z,935.9
2017-03-07T05:05:19.920Z,935.9
2017-03-07T05:06:28.180Z,936.0
2017-03-07T05:07:36.095Z,936.0
2017-03-07T05:08:44.178Z,935.9
2017-03-07T05:09:52.267Z,936.0
2017-03-07T05:11:00.588Z,936.0
2017-03-07T05:12:08.558Z,936.0
2017-03-07T05:13:16.531Z,936.0
2017-03-07T05:14:24.615Z,936.0
2017-03-07T05:15:32.698Z,935.9
2017-03-07T05:16:40.789Z,936.0
2017-03-07T05:17:48.942Z,936.0
2017-03-07T05:18:56.970Z,935.9
2017-03-07T05:20:05.059Z,936.0
2017-03-07T05:21:13.176Z,936.0
2017-03-07T05:22:21.237Z,936.0
2017-03-07T05:23:29.443Z,935.9
2017-03-07T05:24:37.412Z,935.9
2017-03-07T05:25:45.638Z,935.9
2017-03-07T05:26:53.637Z,935.9
2017-03-07T05:28:01.673Z,935.9
2017-03-07T05:29:09.881Z,935.9
2017-03-07T05:30:17.871Z,935.9
2017-03-07T05:31:25.935Z,935.8
2017-03-07T05:32:34.027Z,935.9
2017-03-07T05:33:42.112Z,935.9
2017-03-07T05:34:50.258Z,935.9
2017-03-07T05:35:58.292Z,935.9
2017-03-07T05:37:06.376Z,935.9
2017-03-07T05:38:14.468Z,935.9
2017-03-07T05:39:22.555Z,936.0
2017-03-07T05:40:30.767Z,936.0
2017-03-07T05:41:38.732Z,936.0
2017-03-07T05:42:46.875Z,936.0
2017-03-07T05:43:54.900Z,936.0
2017-03-07T05:45:02.998Z,936.0
2017-03-07T05:46:11.247Z,936.0
2017-03-07T05:47:19.158Z,936.0
2017-03-07T05:48:27.243Z,936.0
2017-03-07T05:49:35.335Z,936.0
2017-03-07T05:50:43.545Z,936.0
2017-03-07T05:51:51.566Z,936.0
2017-03-07T05:52:59.602Z,936.0
2017-03-07T05:54:07.684Z,936.0
2017-03-07T05:55:15.766Z,936.0
2017-03-07T05:56:23.860Z,936.0
2017-03-07T05:57:32.070Z,936.0
2017-03-07T05:58:40.092Z,936.0
2017-03-07T05:59:48.120Z,936.0
2017-03-07T06:00:56.228Z,936.0
2017-03-07T06:02:04.296Z,936.0
2017-03-07T06:03:12.631Z,936.0
2017-03-07T06:04:20.475Z,936.0
2017-03-07T06:05:28.595Z,936.1
2017-03-07T06:06:36.756Z,936.1
2017-03-07T06:07:44.732Z,936.1
2017-03-07T06:08:52.943Z,936.1
2017-03-07T06:10:00.909Z,936.1
2017-03-07T06:11:08.991Z,936.1
2017-03-07T06:12:17.078Z,936.1
2017-03-07T06:13:25.175Z,936.1
2017-03-07T06:14:33.319Z,936.2
2017-03-07T06:15:41.353Z,936.1
2017-03-07T06:16:49.446Z,936.2
2017-03-07T06:17:57.534Z,936.2
2017-03-07T06:19:05.614Z,936.2
2017-03-07T06:20:13.822Z,936.2
2017-03-07T06:21:21.792Z,936.2
2017-03-07T06:22:29.880Z,936.2
2017-03-07T06:23:37.971Z,936.3
2017-03-07T06:24:46.054Z,936.3
2017-03-07T06:25:54.404Z,936.3
2017-03-07T06:27:02.340Z,936.3
2017-03-07T06:28:10.319Z,936.4
2017-03-07T06:29:18.403Z,936.4
2017-03-07T06:30:26.564Z,936.5
2017-03-07T06:31:34.898Z,936.5
2017-03-07T06:32:42.672Z,936.5
2017-03-07T06:33:50.757Z,936.5
2017-03-07T06:34:58.839Z,936.4
2017-03-07T06:36:06.931Z,936.4
2017-03-07T06:37:15.198Z,936.5
2017-03-07T06:38:23.105Z,936.5
2017-03-07T06:39:31.205Z,936.5
2017-03-07T06:40:39.287Z,936.5
2017-03-07T06:41:47.375Z,936.5
2017-03-07T06:42:55.513Z,936.6
2017-03-07T06:44:03.550Z,936.6
2017-03-07T06:45:11.641Z,936.6
2017-03-07T06:46:19.851Z,936.6
2017-03-07T06:47:27.810Z,936.6
2017-03-07T06:48:35.958Z,936.6
2017-03-07T06:49:43.987Z,936.6
2017-03-07T06:50:52.073Z,936.6
2017-03-07T06:52:00.344Z,936.7
2017-03-07T06:53:08.432Z,936.8
2017-03-07T06:54:17.113Z,936.8
2017-03-07T06:55:24.421Z,936.8
2017-03-07T06:56:33.183Z,936.8
2017-03-07T06:57:40.593Z,936.8
2017-03-07T06:58:48.733Z,936.8
2017-03-07T06:59:56.824Z,936.9
2017-03-07T07:01:04.851Z,936.9
2017-03-07T07:02:13.062Z,936.9
2017-03-07T07:03:21.203Z,936.9
2017-03-07T07:04:29.132Z,937.0
2017-03-07T07:05:37.345Z,936.9
2017-03-07T07:06:45.305Z,937.0
2017-03-07T07:07:53.396Z,937.0
2017-03-07T07:09:01.483Z,936.9
2017-03-07T07:10:09.704Z,936.9
2017-03-07T07:11:17.782Z,936.9
2017-03-07T07:12:25.748Z,936.9
2017-03-07T07:13:33.829Z,937.0
2017-03-07T07:14:42.071Z,937.0
2017-03-07T07:15:50.009Z,937.0
2017-03-07T07:16:58.212Z,937.0
2017-03-07T07:18:06.234Z,937.0
2017-03-07T07:19:14.269Z,937.0
2017-03-07T07:20:22.360Z,937.1
2017-03-07T07:21:30.447Z,937.1
2017-03-07T07:22:38.648Z,937.1
2017-03-07T07:23:46.624Z,937.1
2017-03-07T07:24:54.801Z,937.1
2017-03-07T07:26:02.791Z,937.1
2017-03-07T07:27:10.880Z,937.1
2017-03-07T07:28:19.086Z,937.2
2017-03-07T07:29:27.050Z,937.2
2017-03-07T07:30:35.138Z,937.2
2017-03-07T07:31:43.223Z,937.1
2017-03-07T07:32:51.316Z,937.2
2017-03-07T07:33:59.519Z,937.2
2017-03-07T07:35:07.489Z,937.3
2017-03-07T07:36:15.634Z,937.3
2017-03-07T07:37:23.659Z,937.3
2017-03-07T07:38:31.749Z,937.3
2017-03-07T07:39:39.891Z,937.4
2017-03-07T07:40:48.105Z,937.3
2017-03-07T07:41:56.005Z,937.4
2017-03-07T07:43:04.091Z,937.4
2017-03-07T07:44:12.179Z,937.4
2017-03-07T07:45:20.524Z,937.4
2017-03-07T07:46:28.356Z,937.5
2017-03-07T07:47:36.441Z,937.5
2017-03-07T07:48:44.524Z,937.5
2017-03-07T07:49:52.672Z,937.5
2017-03-07T07:51:00.860Z,937.5
2017-03-07T07:52:09.068Z,937.6
2017-03-07T07:53:16.880Z,937.6
2017-03-07T07:54:24.969Z,937.6
2017-03-07T07:55:33.058Z,937.6
2017-03-07T07:56:41.265Z,937.6
2017-03-07T07:57:49.245Z,937.6
2017-03-07T07:58:57.320Z,937.7
2017-03-07T08:00:05.412Z,937.7
2017-03-07T08:01:13.493Z,937.7
2017-03-07T08:02:21.795Z,937.7
2017-03-07T08:03:29.669Z,937.7
2017-03-07T08:04:37.754Z,937.8
2017-03-07T08:05:45.898Z,937.7
2017-03-07T08:06:53.940Z,937.7
2017-03-07T08:08:02.079Z,937.8
2017-03-07T08:09:10.116Z,937.8
2017-03-07T08:10:18.199Z,937.8
2017-03-07T08:11:26.285Z,937.8
2017-03-07T08:12:34.520Z,937.8
2017-03-07T08:13:42.696Z,937.8
2017-03-07T08:14:50.560Z,937.8
2017-03-07T08:15:58.639Z,937.9
2017-03-07T08:17:06.794Z,937.9
2017-03-07T08:18:14.821Z,937.9
2017-03-07T08:19:22.960Z,937.9
2017-03-07T08:20:30.989Z,938.0
2017-03-07T08:21:39.130Z,938.0
2017-03-07T08:22:47.163Z,938.0
2017-03-07T08:23:55.308Z,938.0
2017-03-07T08:25:03.390Z,938.0
2017-03-07T08:26:11.431Z,938.1
2017-03-07T08:27:19.520Z,938.0
2017-03-07T08:28:27.801Z,938.0
2017-03-07T08:29:35.689Z,938.0
2017-03-07T08:30:43.835Z,938.0
2017-03-07T08:31:51.872Z,938.1
2017-03-07T08:32:59.959Z,938.1
2017-03-07T08:34:08.126Z,938.1
2017-03-07T08:35:16.135Z,938.1
2017-03-07T08:36:24.345Z,938.2
2017-03-07T08:37:32.372Z,938.2
2017-03-07T08:38:40.407Z,938.2
2017-03-07T08:39:48.582Z,938.2
2017-03-07T08:40:56.580Z,938.2
2017-03-07T08:42:04.725Z,938.2
2017-03-07T08:43:12.760Z,938.2
2017-03-07T08:44:20.970Z,938.2
2017-03-07T08:45:28.929Z,938.2
2017-03-07T08:46:37.018Z,938.2
2017-03-07T08:47:45.226Z,938.2
2017-03-07T08:48:53.190Z,938.2
2017-03-07T08:50:01.312Z,938.2
2017-03-07T08:51:09.401Z,938.2
2017-03-07T08:52:17.450Z,938.3
2017-03-07T08:53:25.595Z,938.3
2017-03-07T08:54:33.801Z,938.3
2017-03-07T08:55:41.761Z,938.3
2017-03-07T08:56:49.798Z,938.3
2017-03-07T08:57:57.899Z,938.3
2017-03-07T08:59:06.112Z,938.3
2017-03-07T09:00:14.079Z,938.2
2017-03-07T09:01:22.171Z,938.3
2017-03-07T09:02:30.264Z,938.3
2017-03-07T09:03:38.352Z,938.3
2017-03-07T09:04:46.559Z,938.3
2017-03-07T09:05:54.543Z,938.3
2017-03-07T09:07:02.626Z,938.3
2017-03-07T09:08:10.710Z,938.2
2017-03-07T09:09:18.971Z,938.3
2017-03-07T09:10:27.113Z,938.3
2017-03-07T09:11:34.974Z,938.3
2017-03-07T09:12:43.065Z,938.3
2017-03-07T09:13:51.152Z,938.3
2017-03-07T09:14:59.237Z,938.4
2017-03-07T09:16:07.506Z,938.4
2017-03-07T09:17:15.467Z,938.4
2017-03-07T09:18:23.504Z,938.4
2017-03-07T09:19:31.590Z,938.4
2017-03-07T09:20:39.863Z,938.5
2017-03-07T09:21:47.972Z,938.4
2017-03-07T09:22:55.858Z,938.4
2017-03-07T09:24:03.943Z,938.4
2017-03-07T09:25:12.097Z,938.4
2017-03-07T09:26:20.122Z,938.4
2017-03-07T09:27:28.369Z,938.5
2017-03-07T09:28:36.305Z,938.5
2017-03-07T09:29:44.399Z,938.5
2017-03-07T09:30:52.487Z,938.5
2017-03-07T09:32:00.790Z,938.5
2017-03-07T09:33:08.724Z,938.5
2017-03-07T09:34:16.758Z,938.5
2017-03-07T09:35:24.852Z,938.5
2017-03-07T09:36:32.929Z,938.5
2017-03-07T09:37:41.029Z,938.6
2017-03-07T09:38:49.238Z,938.6
2017-03-07T09:39:57.200Z,938.6
2017-03-07T09:41:05.356Z,938.6
2017-03-07T09:42:13.381Z,938.7
2017-03-07T09:43:21.621Z,938.6
2017-03-07T09:44:29.686Z,938.7
2017-03-07T09:45:37.686Z,938.7
2017-03-07T09:46:45.756Z,938.6
2017-03-07T09:47:53.841Z,938.7
2017-03-07T09:49:01.938Z,938.7
2017-03-07T09:50:10.088Z,938.7
2017-03-07T09:51:18.122Z,938.7
2017-03-07T09:52:26.211Z,938.7
2017-03-07T09:53:34.346Z,938.8
2017-03-07T09:54:42.386Z,938.8
2017-03-07T09:55:50.527Z,938.8
2017-03-07T09:56:58.686Z,938.8
2017-03-07T09:58:06.654Z,938.8
2017-03-07T09:59:14.838Z,938.8
2017-03-07T10:00:22.839Z,938.8
2017-03-07T10:01:30.968Z,938.8
2017-03-07T10:02:38.998Z,938.9
2017-03-07T10:03:47.090Z,938.8
2017-03-07T10:04:55.204Z,938.8
2017-03-07T10:06:03.270Z,938.8
2017-03-07T10:07:11.412Z,938.8
2017-03-07T10:08:19.447Z,938.9
2017-03-07T10:09:27.704Z,938.9
2017-03-07T10:10:35.621Z,938.9
2017-03-07T10:11:43.706Z,938.9
2017-03-07T10:12:51.852Z,938.9
2017-03-07T10:13:59.898Z,938.9
2017-03-07T10:15:07.981Z,938.9
2017-03-07T10:16:16.073Z,939.0
2017-03-07T10:17:24.160Z,939.0
2017-03-07T10:18:32.368Z,939.0
2017-03-07T10:19:40.365Z,939.0
2017-03-07T10:20:48.426Z,939.0
2017-03-07T10:21:56.517Z,939.0
2017-03-07T10:23:04.601Z,939.0
2017-03-07T10:24:12.918Z,939.0
2017-03-07T10:25:20.780Z,939.0
2017-03-07T10:26:28.867Z,939.1
2017-03-07T10:27:36.954Z,939.0
2017-03-07T10:28:45.254Z,939.0
2017-03-07T10:29:53.190Z,939.1
2017-03-07T10:31:01.218Z,939.1
2017-03-07T10:32:09.312Z,939.1
2017-03-07T10:33:17.396Z,939.1
2017-03-07T10:34:25.484Z,939.1
2017-03-07T10:35:33.815Z,939.1
2017-03-07T10:36:41.665Z,939.1
2017-03-07T10:37:49.751Z,939.1
2017-03-07T10:38:57.832Z,939.1
2017-03-07T10:40:05.927Z,939.1
2017-03-07T10:41:14.136Z,939.2
2017-03-07T10:42:22.109Z,939.1
2017-03-07T10:43:30.192Z,939.1
2017-03-07T10:44:38.344Z,939.2
2017-03-07T10:45:46.452Z,939.2
2017-03-07T10:46:54.753Z,939.1
2017-03-07T10:48:02.543Z,939.1
2017-03-07T10:49:10.628Z,939.1
2017-03-07T10:50:18.716Z,939.1
2017-03-07T10:51:26.810Z,939.1
2017-03-07T10:52:35.022Z,939.0
2017-03-07T10:53:42.993Z,939.1
2017-03-07T10:54:51.076Z,939.1
2017-03-07T10:55:59.166Z,939.1
2017-03-07T10:57:07.399Z,939.0
2017-03-07T10:58:15.459Z,939.0
2017-03-07T10:59:23.426Z,939.0
2017-03-07T11:00:31.578Z,939.0
2017-03-07T11:01:39.595Z,939.0
2017-03-07T11:02:47.708Z,939.1
2017-03-07T11:03:55.901Z,939.0
2017-03-07T11:05:03.870Z,939.0
2017-03-07T11:06:11.957Z,939.0
2017-03-07T11:07:20.046Z,939.1
2017-03-07T11:08:28.248Z,939.1
2017-03-07T11:09:36.348Z,939.1
2017-03-07T11:10:44.317Z,939.0
2017-03-07T11:11:52.403Z,939.0
2017-03-07T11:13:00.488Z,939.0
2017-03-07T11:14:08.570Z,939.0
2017-03-07T11:15:16.781Z,939.0
2017-03-07T11:16:24.803Z,939.0
2017-03-07T11:17:32.835Z,939.0
2017-03-07T11:18:41.031Z,939.0
2017-03-07T11:19:49.107Z,939.0
2017-03-07T11:20:57.161Z,939.1
2017-03-07T11:22:05.191Z,939.0
2017-03-07T11:23:13.282Z,939.0
2017-03-07T11:24:21.386Z,939.1
2017-03-07T11:25:29.461Z,939.1
2017-03-07T11:26:37.606Z,939.1
2017-03-07T11:27:45.638Z,939.0
2017-03-07T11:28:53.731Z,939.0
2017-03-07T11:30:01.817Z,939.0
2017-03-07T11:31:09.905Z,939.1
2017-03-07T11:32:18.111Z,939.1
2017-03-07T11:33:26.134Z,939.1
2017-03-07T11:34:34.272Z,939.0
2017-03-07T11:35:42.255Z,939.1
2017-03-07T11:36:50.349Z,939.1
2017-03-07T11:37:58.486Z,939.0
2017-03-07T11:39:06.705Z,939.0
2017-03-07T11:40:14.614Z,939.0
2017-03-07T11:41:22.699Z,939.0
2017-03-07T11:42:30.793Z,939.1
2017-03-07T11:43:38.944Z,939.0
2017-03-07T11:44:47.129Z,939.1
2017-03-07T11:45:55.195Z,939.1
2017-03-07T11:47:03.147Z,939.1
2017-03-07T11:48:11.358Z,939.1
2017-03-07T11:49:19.570Z,939.1
2017-03-07T11:50:27.555Z,939.0
2017-03-07T11:51:35.500Z,939.0
2017-03-07T11:52:43.596Z,939.0
2017-03-07T11:53:51.677Z,939.0
2017-03-07T11:54:59.887Z,939.0
2017-03-07T11:56:07.851Z,939.0
2017-03-07T11:57:15.948Z,939.0
2017-03-07T11:58:24.204Z,939.0
2017-03-07T11:59:32.124Z,939.0
2017-03-07T12:00:40.459Z,939.1
2017-03-07T12:01:48.301Z,939.0
2017-03-07T12:02:56.598Z,939.1
2017-03-07T12:04:04.600Z,939.0
2017-03-07T12:05:12.720Z,939.1
2017-03-07T12:06:20.943Z,939.1
2017-03-07T12:07:28.907Z,939.1
2017-03-07T12:08:36.849Z,939.1
2017-03-07T12:09:44.934Z,939.1
2017-03-07T12:10:53.223Z,939.1
2017-03-07T12:12:01.332Z,939.1
2017-03-07T12:13:09.396Z,939.1
2017-03-07T12:14:17.291Z,939.1
2017-03-07T12:15:25.393Z,939.1
2017-03-07T12:16:33.474Z,939.0
2017-03-07T12:17:41.683Z,939.0
2017-03-07T12:18:49.659Z,939.1
2017-03-07T12:19:58.171Z,939.1
2017-03-07T12:21:05.835Z,939.1
2017-03-07T12:22:14.076Z,939.1
2017-03-07T12:23:23.160Z,939.1
2017-03-07T12:24:30.097Z,939.1
2017-03-07T12:25:38.338Z,939.2
2017-03-07T12:26:46.455Z,939.2
2017-03-07T12:27:54.637Z,939.2
2017-03-07T12:29:02.570Z,939.2
2017-03-07T12:30:10.697Z,939.2
2017-03-07T12:31:18.628Z,939.2
2017-03-07T12:32:26.852Z,939.2
2017-03-07T12:33:34.929Z,939.2
2017-03-07T12:34:42.953Z,939.2
2017-03-07T12:35:51.245Z,939.2
2017-03-07T12:36:59.072Z,939.2
2017-03-07T12:38:07.821Z,939.2
2017-03-07T12:39:15.470Z,939.2
2017-03-07T12:40:23.826Z,939.2
2017-03-07T12:41:31.765Z,939.2
2017-03-07T12:42:39.528Z,939.3
2017-03-07T12:43:47.610Z,939.3
2017-03-07T12:44:55.717Z,939.3
2017-03-07T12:46:03.909Z,939.3
2017-03-07T12:47:11.878Z,939.2
2017-03-07T12:48:20.108Z,939.3
2017-03-07T12:49:28.179Z,939.3
2017-03-07T12:50:36.148Z,939.3
2017-03-07T12:51:44.353Z,939.3
2017-03-07T12:52:52.328Z,939.4
2017-03-07T12:54:00.416Z,939.3
2017-03-07T12:55:08.580Z,939.3
2017-03-07T12:56:16.761Z,939.4
2017-03-07T12:57:24.801Z,939.4
2017-03-07T12:58:32.781Z,939.4
2017-03-07T12:59:41.021Z,939.4
2017-03-07T13:00:48.951Z,939.4
2017-03-07T13:01:57.046Z,939.5
2017-03-07T13:03:05.186Z,939.4
2017-03-07T13:04:13.396Z,939.5
2017-03-07T13:05:21.301Z,939.5
2017-03-07T13:06:29.392Z,939.5
2017-03-07T13:07:37.610Z,939.6
2017-03-07T13:08:45.621Z,939.5
2017-03-07T13:09:53.742Z,939.5
2017-03-07T13:11:01.747Z,939.6
2017-03-07T13:12:09.843Z,939.6
2017-03-07T13:13:17.927Z,939.5
2017-03-07T13:14:26.157Z,939.6
2017-03-07T13:15:34.264Z,939.5
2017-03-07T13:16:42.192Z,939.5
2017-03-07T13:17:50.297Z,939.5
2017-03-07T13:18:58.385Z,939.5
2017-03-07T13:20:06.598Z,939.5
2017-03-07T13:21:14.574Z,939.5
2017-03-07T13:22:22.664Z,939.5
2017-03-07T13:23:30.867Z,939.6
2017-03-07T13:24:38.826Z,939.6
2017-03-07T13:25:47.703Z,939.6
2017-03-07T13:26:55.192Z,939.6
2017-03-07T13:28:03.252Z,939.7
2017-03-07T13:29:11.198Z,939.7
2017-03-07T13:30:19.291Z,939.7
2017-03-07T13:31:27.545Z,939.7
2017-03-07T13:32:35.501Z,939.7
2017-03-07T13:33:43.569Z,939.7
2017-03-07T13:34:51.664Z,939.7
2017-03-07T13:35:59.747Z,939.8
2017-03-07T13:37:07.961Z,939.7
2017-03-07T13:38:15.935Z,939.8
2017-03-07T13:39:24.074Z,939.8
2017-03-07T13:40:32.287Z,939.8
2017-03-07T13:41:40.391Z,939.8
2017-03-07T13:42:48.341Z,939.8
2017-03-07T13:43:56.374Z,939.8
2017-03-07T13:45:04.465Z,939.8
2017-03-07T13:46:12.550Z,939.9
2017-03-07T13:47:20.790Z,939.9
2017-03-07T13:48:28.856Z,939.9
2017-03-07T13:49:36.983Z,939.9
2017-03-07T13:50:45.086Z,939.9
2017-03-07T13:51:53.173Z,939.9
2017-03-07T13:53:01.237Z,939.9
2017-03-07T13:54:09.308Z,940.0
2017-03-07T13:55:17.351Z,939.9
2017-03-07T13:56:25.518Z,940.0
2017-03-07T13:57:33.609Z,939.9
2017-03-07T13:58:41.551Z,940.0
2017-03-07T13:59:49.758Z,940.0
2017-03-07T14:00:57.731Z,940.0
2017-03-07T14:02:05.981Z,939.9
2017-03-07T14:03:13.919Z,940.0
2017-03-07T14:04:22.008Z,939.9
2017-03-07T14:05:30.305Z,940.0
2017-03-07T14:06:38.201Z,939.9
2017-03-07T14:07:46.616Z,940.0
2017-03-07T14:08:54.564Z,940.0
2017-03-07T14:10:03.180Z,940.1
2017-03-07T14:11:10.898Z,940.0
2017-03-07T14:12:19.207Z,940.1
2017-03-07T14:13:27.239Z,940.1
2017-03-07T14:14:35.132Z,940.1
2017-03-07T14:15:43.155Z,940.2
2017-03-07T14:16:51.855Z,940.2
2017-03-07T14:17:59.615Z,940.2
2017-03-07T14:19:07.806Z,940.1
2017-03-07T14:20:15.572Z,940.2
2017-03-07T14:21:23.937Z,940.2
2017-03-07T14:22:33.654Z,940.2
2017-03-07T14:23:39.923Z,940.3
2017-03-07T14:24:48.134Z,940.2
2017-03-07T14:25:56.065Z,940.3
2017-03-07T14:27:04.859Z,940.3
2017-03-07T14:28:12.269Z,940.2
2017-03-07T14:29:20.255Z,940.3
2017-03-07T14:30:28.251Z,940.2
2017-03-07T14:31:36.229Z,940.3
2017-03-07T14:32:44.715Z,940.2
2017-03-07T14:33:53.246Z,940.3
2017-03-07T14:35:01.058Z,940.2